Terminal Aerodrome Forecast
Issued by NWS Louisville, KY

Home | Current Version | Previous Version | Text Only | Print | Product List | Glossary On
Versions: 1 2 3 4 5 6 7 8 9 10 11 12 13 14 15 16 17 18 19
608
FTUS43 KLMK 142333
TAFBWG
TAF
KBWG 142333Z 1500/1524 VRB03KT P6SM BKN019 BKN060
     FM151000 00000KT 3SM BR VCSH BKN015
     FM151300 00000KT P6SM VCSH BKN015
     FM151600 VRB03KT P6SM SCT020 BKN035=

USA.gov is the U.S. government's official web portal to all federal, state and local government web resources and services.